Time;durP1;ratioP1;P1;durP2;ratioP2;P2;SDS_P1;SDS_P2;PMS_P1;PMS_P2;Temp;Humidity;BMP_temperature;BMP_pressure;BME280_temperature;BME280_humidity;BME280_pressure;Samples;Min_cycle;Max_cycle;Signal;HPM_P1;HPM_P2
2022/05/28 00:00:13;;;;;;;11.10;0.50;;;;;;;7.77;48.26;101627.53;4941789;28;20073;-78
2022/05/28 00:02:39;;;;;;;2.47;0.47;;;;;;;7.56;48.70;101621.78;4959709;28;20038;-78
2022/05/28 00:05:06;;;;;;;10.70;0.80;;;;;;;7.33;48.97;101625.56;4974238;28;20031;-77
2022/05/28 00:07:31;;;;;;;8.10;0.50;;;;;;;7.56;48.51;101632.19;4971617;28;20039;-76
2022/05/28 00:09:57;;;;;;;12.80;0.90;;;;;;;7.19;48.77;101624.88;4963056;28;20386;-78
2022/05/28 00:12:25;;;;;;;10.48;0.80;;;;;;;7.45;48.29;101623.66;4961809;28;20117;-79
2022/05/28 00:14:51;;;;;;;4.47;0.55;;;;;;;7.21;48.61;101614.47;4957760;28;20042;-75
2022/05/28 00:17:16;;;;;;;8.02;0.47;;;;;;;7.26;48.55;101623.91;4943649;28;20050;-78
2022/05/28 00:19:43;;;;;;;8.40;0.63;;;;;;;7.67;47.62;101613.84;4965768;28;20413;-81
2022/05/28 00:22:08;;;;;;;12.57;0.90;;;;;;;7.60;47.80;101618.28;4955256;28;20078;-79
2022/05/28 00:24:33;;;;;;;7.35;0.82;;;;;;;7.80;47.22;101614.47;4959803;28;20039;-80
2022/05/28 00:26:59;;;;;;;5.75;0.30;;;;;;;7.71;47.55;101612.88;4969824;28;20422;-78
2022/05/28 00:29:25;;;;;;;2.88;0.60;;;;;;;7.70;47.20;101604.22;4971068;28;20676;-79
2022/05/28 00:31:50;;;;;;;10.02;1.45;;;;;;;7.59;48.04;101597.47;4958328;28;20027;-79
2022/05/28 00:34:16;;;;;;;4.65;0.93;;;;;;;7.44;48.41;101614.13;4945790;28;20568;-79
2022/05/28 00:36:41;;;;;;;6.35;0.75;;;;;;;7.33;48.30;101611.69;4958484;28;20625;-78
2022/05/28 00:39:07;;;;;;;8.45;0.60;;;;;;;7.48;47.59;101613.22;4961325;28;20039;-78
2022/05/28 00:41:34;;;;;;;5.43;0.80;;;;;;;7.41;47.93;101612.44;4944533;28;20972;-77
2022/05/28 00:43:59;;;;;;;11.52;0.73;;;;;;;7.51;47.47;101613.16;4958479;28;20047;-78
2022/05/28 00:46:27;;;;;;;11.23;0.70;;;;;;;7.56;47.55;101611.41;4958588;28;20038;-80
2022/05/28 00:48:59;;;;;;;5.85;0.57;;;;;;;7.40;47.88;101609.84;4959679;28;20042;-78
2022/05/28 00:51:46;;;;;;;;;;;;;;;7.74;47.24;101608.50;4955262;28;20093;-78
2022/05/28 00:54:12;;;;;;;15.63;0.95;;;;;;;7.83;47.63;101604.03;4969304;28;19957;-76
2022/05/28 00:56:38;;;;;;;11.63;0.82;;;;;;;7.91;47.24;101607.34;4968844;28;20063;-78
2022/05/28 00:59:04;;;;;;;6.05;0.63;;;;;;;7.81;47.74;101605.78;4962009;28;20541;-78
2022/05/28 01:01:33;;;;;;;12.90;1.40;;;;;;;7.77;48.31;101619.72;4959593;28;20035;-76
2022/05/28 01:04:15;;;;;;;8.23;0.68;;;;;;;7.82;47.87;101607.50;4940958;28;20051;-78
2022/05/28 01:07:00;;;;;;;10.40;0.47;;;;;;;7.53;48.05;101608.78;4955231;28;20042;-78
2022/05/28 01:10:08;;;;;;;5.65;0.43;;;;;;;7.38;48.63;101602.09;4957694;28;20054;-77
2022/05/28 01:12:48;;;;;;;15.02;1.17;;;;;;;7.54;48.28;101607.91;4929727;28;20051;-76
2022/05/28 01:15:22;;;;;;;10.77;0.63;;;;;;;7.64;48.32;101611.25;4955621;28;20063;-79
2022/05/28 01:17:55;;;;;;;11.40;0.80;;;;;;;7.92;48.16;101596.91;4961268;28;20490;-78
2022/05/28 01:20:26;;;;;;;13.25;0.55;;;;;;;7.95;47.55;101606.41;4957675;28;20077;-79
2022/05/28 01:22:57;;;;;;;8.90;0.98;;;;;;;8.08;47.38;101607.91;4967775;28;20070;-78
2022/05/28 01:26:01;;;;;;;5.22;0.30;;;;;;;7.99;47.13;101608.06;4957241;28;20058;-79
2022/05/28 01:28:32;;;;;;;4.78;0.43;;;;;;;7.76;47.58;101605.88;4971246;28;20054;-77
2022/05/28 01:31:00;;;;;;;9.30;1.27;;;;;;;7.68;47.56;101599.91;4967657;28;20039;-78
2022/05/28 01:33:26;;;;;;;10.52;0.88;;;;;;;7.57;47.26;101599.25;4955059;28;20138;-77
2022/05/28 01:35:53;;;;;;;10.13;0.85;;;;;;;7.27;47.27;101606.59;4971876;28;20090;-77
2022/05/28 01:38:19;;;;;;;6.22;0.70;;;;;;;7.20;46.89;101592.81;4947281;28;20672;-77
2022/05/28 01:40:46;;;;;;;12.70;2.03;;;;;;;7.37;46.72;101600.34;4955861;28;20042;-79
2022/05/28 01:43:15;;;;;;;5.80;1.55;;;;;;;7.85;46.23;101595.31;4945912;28;20042;-78
2022/05/28 01:45:46;;;;;;;4.13;0.65;;;;;;;8.18;45.02;101595.56;4962419;28;20070;-79
2022/05/28 01:48:14;;;;;;;4.28;0.75;;;;;;;7.55;46.37;101599.25;4970451;28;20535;-77
2022/05/28 01:50:46;;;;;;;5.53;0.40;;;;;;;7.86;45.96;101598.75;4952843;28;20042;-78
2022/05/28 01:54:06;;;;;;;8.50;1.35;;;;;;;7.98;45.32;101584.66;4956863;28;20524;-77
2022/05/28 01:56:03;;;;;;;9.57;0.82;;;;;;;7.82;46.30;101591.88;4955772;28;20085;-80
2022/05/28 01:58:30;;;;;;;7.25;0.63;;;;;;;7.54;46.74;101592.31;4959331;28;20674;-78
2022/05/28 02:00:58;;;;;;;7.32;0.50;;;;;;;7.58;46.93;101583.63;4975334;28;20043;-77
2022/05/28 02:03:25;;;;;;;7.00;0.90;;;;;;;7.52;47.23;101583.66;4957595;28;20103;-79
2022/05/28 02:05:51;;;;;;;10.90;0.73;;;;;;;7.50;47.08;101577.63;4959072;28;20041;-78
2022/05/28 02:08:16;;;;;;;5.47;0.80;;;;;;;7.41;47.25;101573.44;4943501;28;20039;-78
2022/05/28 02:10:52;;;;;;;10.73;1.13;;;;;;;7.56;47.00;101574.09;4946586;28;20030;-77
2022/05/28 02:13:30;;;;;;;8.60;0.70;;;;;;;7.33;46.80;101570.97;4956616;28;20090;-76
2022/05/28 02:16:07;;;;;;;11.13;1.25;;;;;;;7.57;47.01;101576.66;4958414;28;20392;-77
2022/05/28 02:18:44;;;;;;;12.18;1.02;;;;;;;7.46;47.25;101568.16;4965986;28;20042;-79
2022/05/28 02:21:23;;;;;;;8.60;0.80;;;;;;;7.79;46.77;101581.53;4970210;28;20050;-77
2022/05/28 02:23:59;;;;;;;10.27;1.20;;;;;;;7.97;46.83;101576.00;4951217;28;20090;-78
2022/05/28 02:26:43;;;;;;;9.13;0.88;;;;;;;7.83;47.10;101572.78;4957372;28;20061;-78
2022/05/28 02:29:10;;;;;;;9.45;0.75;;;;;;;7.92;47.34;101580.44;4931313;28;20042;-78
2022/05/28 02:31:36;;;;;;;6.85;1.85;;;;;;;7.79;48.51;101586.75;4963141;28;20217;-78
2022/05/28 02:34:03;;;;;;;7.32;1.27;;;;;;;7.85;48.62;101577.09;4932388;28;20989;-78
2022/05/28 02:36:29;;;;;;;11.63;0.82;;;;;;;7.74;49.19;101585.06;4952228;28;20469;-79
2022/05/28 02:38:54;;;;;;;6.45;0.82;;;;;;;7.81;49.23;101579.75;4967690;28;20050;-78
2022/05/28 02:41:21;;;;;;;17.05;2.10;;;;;;;7.91;48.99;101576.97;4969229;28;20031;-78
2022/05/28 02:43:47;;;;;;;12.27;1.67;;;;;;;7.63;49.55;101575.72;4957317;28;20464;-79
2022/05/28 02:46:12;;;;;;;8.60;1.48;;;;;;;7.95;48.34;101578.63;4966681;28;20035;-77
2022/05/28 02:48:39;;;;;;;9.40;0.77;;;;;;;7.93;48.35;101574.34;4953795;28;20113;-79
2022/05/28 02:51:08;;;;;;;7.00;0.95;;;;;;;7.82;48.44;101577.13;4953492;28;20031;-76
2022/05/28 02:53:33;;;;;;;9.70;1.55;;;;;;;7.61;49.08;101593.09;4952610;28;20047;-78
2022/05/28 02:55:59;;;;;;;7.40;1.60;;;;;;;7.43;49.18;101579.47;4966219;28;20089;-76
2022/05/28 02:58:25;;;;;;;7.93;0.70;;;;;;;7.76;48.69;101589.38;4955541;28;20047;-77
2022/05/28 03:00:51;;;;;;;14.82;1.83;;;;;;;8.28;47.94;101581.50;4971098;28;20527;-77
2022/05/28 03:03:19;;;;;;;12.85;1.17;;;;;;;7.91;48.53;101576.97;4941408;28;20505;-77
2022/05/28 03:05:52;;;;;;;8.98;1.33;;;;;;;7.47;50.00;101595.91;4953691;28;20042;-78
2022/05/28 03:08:18;;;;;;;14.30;0.73;;;;;;;7.83;48.23;101598.81;4946868;28;20061;-78
2022/05/28 03:10:44;;;;;;;7.78;1.10;;;;;;;7.59;47.74;101598.31;4959182;28;20054;-77
2022/05/28 03:13:10;;;;;;;5.47;0.43;;;;;;;7.92;47.06;101590.84;4943374;28;20088;-79
2022/05/28 03:15:36;;;;;;;7.57;0.70;;;;;;;7.59;47.93;101600.06;4955840;28;20039;-78
2022/05/28 03:18:02;;;;;;;9.02;0.75;;;;;;;7.53;48.02;101595.78;4954274;28;20058;-77
2022/05/28 03:20:29;;;;;;;6.75;0.82;;;;;;;7.82;48.41;101602.28;4958658;28;20030;-77
2022/05/28 03:22:56;;;;;;;5.93;0.70;;;;;;;7.71;48.81;101605.94;4918512;28;20082;-77
2022/05/28 03:25:21;;;;;;;18.45;1.20;;;;;;;7.53;49.38;101600.97;4953944;28;20118;-78
2022/05/28 03:27:47;;;;;;;7.35;1.20;;;;;;;7.47;49.81;101601.09;4952862;28;20219;-78
2022/05/28 03:30:13;;;;;;;17.05;2.42;;;;;;;7.85;49.33;101607.47;4955308;28;20159;-77
2022/05/28 03:32:39;;;;;;;12.50;1.55;;;;;;;7.81;49.17;101604.03;4914863;28;20042;-77
2022/05/28 03:35:05;;;;;;;12.68;2.15;;;;;;;7.97;49.20;101590.78;4960158;28;20035;-78
2022/05/28 03:37:31;;;;;;;23.63;1.73;;;;;;;8.08;48.96;101599.25;4942515;28;20108;-78
2022/05/28 03:39:57;;;;;;;12.18;1.83;;;;;;;7.96;49.51;101600.34;4939383;28;20062;-79
2022/05/28 03:42:22;;;;;;;16.83;1.58;;;;;;;7.72;50.23;101597.25;4939784;28;20521;-76
2022/05/28 03:44:48;;;;;;;11.00;1.95;;;;;;;8.05;49.40;101604.53;4946240;28;20886;-79
2022/05/28 03:47:13;;;;;;;17.90;1.80;;;;;;;8.01;49.35;101603.69;4952048;28;20754;-79
2022/05/28 03:49:41;;;;;;;8.23;1.10;;;;;;;8.31;48.53;101601.41;4954259;28;20498;-80
2022/05/28 03:52:07;;;;;;;14.82;1.42;;;;;;;7.98;48.76;101598.56;4950939;28;20043;-76
2022/05/28 03:54:33;;;;;;;13.10;1.02;;;;;;;8.04;48.35;101623.63;4941234;28;20049;-78
2022/05/28 03:57:04;;;;;;;9.50;1.23;;;;;;;7.80;49.04;101609.25;4948586;28;20026;-77
2022/05/28 03:59:29;;;;;;;6.87;0.97;;;;;;;7.50;49.87;101619.25;4968589;28;20044;-79
2022/05/28 04:01:55;;;;;;;22.27;1.58;;;;;;;7.49;50.29;101618.41;4966833;28;20317;-77
2022/05/28 04:04:21;;;;;;;15.48;1.42;;;;;;;8.12;48.94;101617.38;4955302;28;20050;-76
2022/05/28 04:06:47;;;;;;;11.73;1.38;;;;;;;8.24;49.27;101625.88;4967278;28;20517;-80
2022/05/28 04:09:13;;;;;;;14.75;1.42;;;;;;;8.14;49.62;101633.84;4968497;28;20035;-77
2022/05/28 04:11:39;;;;;;;14.82;2.15;;;;;;;7.45;51.00;101628.88;4967740;28;20046;-78
2022/05/28 04:14:05;;;;;;;11.63;0.98;;;;;;;7.79;50.86;101644.00;4952420;28;20043;-77
2022/05/28 04:16:32;;;;;;;7.50;1.65;;;;;;;7.77;49.62;101653.56;4959986;28;20039;-78
2022/05/28 04:18:58;;;;;;;6.63;0.77;;;;;;;7.46;50.49;101644.44;4915091;28;20054;-76
2022/05/28 04:21:23;;;;;;;2.08;0.60;;;;;;;7.19;51.25;101652.63;4968937;28;20087;-76
2022/05/28 04:23:49;;;;;;;9.65;0.60;;;;;;;6.31;52.55;101643.25;4957352;28;20058;-77
2022/05/28 04:26:15;;;;;;;6.45;0.47;;;;;;;6.45;52.59;101646.56;4941118;28;20498;-79
2022/05/28 04:28:41;;;;;;;2.63;0.52;;;;;;;6.83;52.51;101647.88;4944926;28;20669;-77
2022/05/28 04:31:07;;;;;;;4.55;0.65;;;;;;;6.86;52.45;101640.06;4939956;28;20046;-77
2022/05/28 04:33:32;;;;;;;6.82;0.93;;;;;;;6.99;52.59;101634.69;4945784;28;20051;-78
2022/05/28 04:35:58;;;;;;;11.00;0.80;;;;;;;7.17;52.31;101637.03;4946611;28;20031;-78
2022/05/28 04:38:23;;;;;;;4.80;0.35;;;;;;;7.53;52.40;101642.59;4944711;28;20514;-78
2022/05/28 04:40:49;;;;;;;10.88;0.90;;;;;;;7.97;51.72;101646.28;4955110;28;20126;-77
2022/05/28 04:43:15;;;;;;;8.45;0.77;;;;;;;7.83;52.56;101645.66;4953990;28;20106;-79
2022/05/28 04:45:40;;;;;;;14.63;1.60;;;;;;;7.84;52.62;101645.63;4955926;28;20042;-75
2022/05/28 04:48:07;;;;;;;10.13;0.95;;;;;;;7.83;52.42;101645.66;4939694;28;20414;-77
2022/05/28 04:50:32;;;;;;;15.48;1.90;;;;;;;7.98;52.35;101635.00;4953781;28;20038;-78
2022/05/28 04:52:58;;;;;;;11.15;0.80;;;;;;;7.92;51.38;101635.09;4970940;28;20042;-78
2022/05/28 04:55:23;;;;;;;11.48;1.45;;;;;;;8.28;50.77;101651.81;4945064;28;20129;-80
2022/05/28 04:57:52;;;;;;;13.93;1.40;;;;;;;8.21;51.93;101688.44;4967900;28;20043;-77
2022/05/28 05:00:19;;;;;;;9.13;0.60;;;;;;;6.76;53.71;101676.56;4955473;28;20496;-75
2022/05/28 05:02:44;;;;;;;7.10;1.17;;;;;;;6.88;53.58;101666.00;4955310;28;20051;-76
2022/05/28 05:05:10;;;;;;;5.15;0.90;;;;;;;6.87;53.81;101661.72;4964097;28;20464;-77
2022/05/28 05:07:36;;;;;;;7.47;0.93;;;;;;;7.26;53.39;101662.91;4961060;28;20042;-77
2022/05/28 05:10:03;;;;;;;16.08;0.60;;;;;;;7.93;52.58;101652.41;4945020;28;20752;-76
2022/05/28 05:12:29;;;;;;;9.15;1.00;;;;;;;8.14;52.23;101662.50;4955965;28;20035;-77
2022/05/28 05:14:54;;;;;;;13.63;1.50;;;;;;;9.71;47.95;101664.53;4951389;28;20401;-77
2022/05/28 05:17:20;;;;;;;4.18;1.05;;;;;;;9.75;48.24;101676.63;4969042;28;20043;-75
2022/05/28 05:19:45;;;;;;;16.15;2.03;;;;;;;10.57;46.69;101675.44;4958865;28;20039;-76
2022/05/28 05:22:12;;;;;;;8.13;0.93;;;;;;;10.63;45.79;101671.78;4939559;28;20085;-78
2022/05/28 05:24:37;;;;;;;6.13;0.65;;;;;;;11.54;44.01;101672.63;4963073;28;20039;-76
2022/05/28 05:27:03;;;;;;;11.10;0.85;;;;;;;11.71;43.21;101666.88;4941062;28;20045;-78
2022/05/28 05:29:30;;;;;;;15.55;0.85;;;;;;;11.29;44.68;101680.41;4970386;28;20027;-77
2022/05/28 05:31:56;;;;;;;14.27;1.48;;;;;;;14.07;39.89;101680.09;4957745;28;20038;-78
2022/05/28 05:34:21;;;;;;;12.43;1.00;;;;;;;13.46;40.56;101683.44;4970842;28;20042;-77
2022/05/28 05:36:47;;;;;;;10.05;0.80;;;;;;;12.89;41.94;101685.56;4954019;28;20032;-77
2022/05/28 05:39:13;;;;;;;14.30;1.52;;;;;;;10.16;46.45;101702.66;4953066;28;20038;-78
2022/05/28 05:41:43;;;;;;;9.07;0.95;;;;;;;8.91;48.98;101714.97;4956442;28;20363;-79
2022/05/28 05:44:09;;;;;;;7.70;1.23;;;;;;;9.17;49.17;101709.22;4956281;28;20046;-78
2022/05/28 05:46:38;;;;;;;7.68;0.70;;;;;;;8.68;50.05;101704.94;4955267;28;20129;-77
2022/05/28 05:49:04;;;;;;;11.82;0.80;;;;;;;8.64;50.53;101709.34;4970146;28;20035;-78
2022/05/28 05:51:30;;;;;;;8.35;1.02;;;;;;;8.96;50.16;101705.28;4959184;28;20743;-77
2022/05/28 05:53:55;;;;;;;9.23;0.73;;;;;;;8.63;51.07;101704.16;4920587;28;20533;-78
2022/05/28 05:56:21;;;;;;;10.75;1.48;;;;;;;9.48;49.71;101706.81;4959426;28;20043;-77
2022/05/28 05:58:46;;;;;;;9.63;0.82;;;;;;;11.00;45.31;101699.56;4949081;28;20054;-78
2022/05/28 06:01:13;;;;;;;9.70;1.33;;;;;;;12.28;42.84;101702.53;4943076;28;20043;-77
2022/05/28 06:03:44;;;;;;;15.82;1.65;;;;;;;14.61;38.15;101699.72;4945926;28;20793;-78
2022/05/28 06:06:12;;;;;;;7.80;1.77;;;;;;;15.66;34.79;101692.28;4960210;28;21138;-77
2022/05/28 06:08:38;;;;;;;11.10;0.90;;;;;;;13.63;37.51;101695.91;4960374;28;20034;-78
2022/05/28 06:11:04;;;;;;;15.32;1.52;;;;;;;11.28;41.97;101701.38;4943476;28;20535;-76
2022/05/28 06:13:30;;;;;;;14.77;1.95;;;;;;;10.34;43.82;101712.63;4962567;28;20042;-78
2022/05/28 06:15:55;;;;;;;19.95;1.38;;;;;;;10.26;44.25;101705.88;4971636;28;20187;-78
2022/05/28 06:18:21;;;;;;;7.75;1.33;;;;;;;10.07;44.29;101713.31;4972093;28;20079;-78
2022/05/28 06:20:49;;;;;;;9.48;1.00;;;;;;;9.29;45.89;101710.72;4947116;28;20042;-79
2022/05/28 06:23:18;;;;;;;12.68;1.05;;;;;;;9.74;45.75;101715.81;4953190;28;20520;-79
2022/05/28 06:25:44;;;;;;;14.05;1.15;;;;;;;9.66;46.58;101713.38;4960041;28;20101;-79
2022/05/28 06:28:11;;;;;;;5.60;1.92;;;;;;;9.89;46.39;101730.28;4948195;28;20066;-78
2022/05/28 06:30:36;;;;;;;13.43;1.75;;;;;;;10.02;46.40;101722.13;4958661;28;20813;-78
2022/05/28 06:33:02;;;;;;;13.88;1.63;;;;;;;9.01;47.73;101723.44;4956771;28;20101;-79
2022/05/28 06:35:30;;;;;;;14.85;1.35;;;;;;;9.56;46.78;101723.16;4960400;28;20042;-78
2022/05/28 06:37:56;;;;;;;10.98;1.48;;;;;;;10.36;45.58;101725.66;4951403;28;20513;-77
2022/05/28 06:40:21;;;;;;;16.45;1.63;;;;;;;10.49;44.70;101721.84;4970787;28;20043;-81
2022/05/28 06:42:49;;;;;;;11.88;1.98;;;;;;;10.28;44.45;101727.59;4973033;28;20047;-79
2022/05/28 06:45:15;;;;;;;11.45;1.08;;;;;;;9.79;45.00;101724.41;4945799;28;20169;-80
2022/05/28 06:47:43;;;;;;;12.68;1.55;;;;;;;12.10;39.91;101729.38;4943247;28;20066;-78
2022/05/28 06:52:54;;;;;;;16.55;1.30;;;;;;;14.93;33.57;101731.66;4971162;28;20043;-80
2022/05/28 06:55:20;;;;;;;11.20;1.95;;;;;;;16.11;32.28;101723.50;4940651;28;20122;-79
2022/05/28 06:57:45;;;;;;;14.20;0.63;;;;;;;17.49;30.07;101728.56;4956409;28;20039;-81
2022/05/28 07:00:14;;;;;;;8.43;1.42;;;;;;;15.62;30.86;101725.84;4959129;28;20046;-80
2022/05/28 07:02:39;;;;;;;6.95;1.30;;;;;;;15.86;30.22;101723.78;4931956;28;20196;-79
2022/05/28 07:05:05;;;;;;;8.48;1.15;;;;;;;15.96;31.52;101725.06;4956324;28;20031;-76
2022/05/28 07:07:31;;;;;;;4.45;0.50;;;;;;;16.07;30.52;101731.63;4968652;28;20055;-80
2022/05/28 07:09:56;;;;;;;16.55;1.15;;;;;;;16.90;29.50;101724.75;4940334;28;20027;-78
2022/05/28 07:12:22;;;;;;;12.73;1.73;;;;;;;16.92;29.38;101734.28;4951909;28;20043;-79
2022/05/28 07:14:48;;;;;;;6.18;0.35;;;;;;;16.12;30.03;101729.59;4957441;28;20091;-77
2022/05/28 07:17:13;;;;;;;6.18;0.50;;;;;;;13.93;33.52;101746.38;4954195;28;20621;-78
2022/05/28 07:19:41;;;;;;;7.95;0.63;;;;;;;12.67;36.35;101741.44;4941941;28;20497;-81
2022/05/28 07:22:07;;;;;;;11.00;1.10;;;;;;;11.23;39.00;101743.38;4958309;28;20062;-79
2022/05/28 07:24:33;;;;;;;9.63;1.33;;;;;;;11.97;38.70;101743.78;4958439;28;20035;-78
2022/05/28 07:26:59;;;;;;;12.98;0.85;;;;;;;11.30;40.37;101742.28;4943752;28;20066;-77
2022/05/28 07:29:25;;;;;;;15.75;1.48;;;;;;;10.60;41.98;101751.16;4945442;28;20122;-77
2022/05/28 07:31:50;;;;;;;11.02;1.20;;;;;;;9.94;42.87;101746.69;4942366;28;20035;-77
2022/05/28 07:34:16;;;;;;;5.97;1.70;;;;;;;10.57;41.82;101753.88;4940139;28;20031;-79
2022/05/28 07:36:41;;;;;;;10.63;0.88;;;;;;;12.01;38.81;101748.03;4958522;28;20049;-78
2022/05/28 07:39:07;;;;;;;10.25;0.82;;;;;;;10.79;40.14;101748.03;4952891;28;20054;-76
2022/05/28 07:41:33;;;;;;;17.23;1.75;;;;;;;10.60;40.75;101755.53;4941831;28;20039;-78
2022/05/28 07:43:59;;;;;;;11.57;1.60;;;;;;;10.40;40.61;101750.81;4958187;28;20049;-77
2022/05/28 07:46:30;;;;;;;17.85;0.90;;;;;;;11.45;40.40;101747.06;4954943;28;20445;-81
2022/05/28 07:48:57;;;;;;;8.73;1.23;;;;;;;13.83;35.23;101740.66;4951921;28;20071;-79
2022/05/28 07:51:23;;;;;;;7.45;0.80;;;;;;;15.58;31.82;101738.31;4939518;28;20038;-79
2022/05/28 07:53:49;;;;;;;4.32;0.80;;;;;;;15.78;30.18;101734.72;4950065;28;20038;-78
2022/05/28 07:56:16;;;;;;;5.20;0.85;;;;;;;15.28;30.82;101747.66;4952083;28;20035;-77
2022/05/28 07:58:42;;;;;;;11.88;1.20;;;;;;;16.30;29.09;101746.28;4958477;28;20047;-77
2022/05/28 08:01:18;;;;;;;5.80;0.95;;;;;;;14.55;31.43;101750.00;4954311;28;20035;-78
2022/05/28 08:03:44;;;;;;;3.20;0.85;;;;;;;15.99;30.26;101753.94;4969659;28;20050;-77
2022/05/28 08:06:09;;;;;;;5.43;0.70;;;;;;;;;;4958081;28;20042;-78
2022/05/28 08:08:35;;;;;;;5.22;0.77;;;;;;;13.41;33.37;101749.25;4970610;28;20168;-77
2022/05/28 08:11:00;;;;;;;9.95;1.48;;;;;;;11.87;37.70;101766.81;4956344;28;20050;-79
2022/05/28 08:13:26;;;;;;;9.30;0.80;;;;;;;10.88;39.40;101763.50;4959793;28;20440;-77
2022/05/28 08:15:54;;;;;;;6.35;0.47;;;;;;;10.43;39.89;101769.03;4959995;28;20488;-77
2022/05/28 08:18:26;;;;;;;12.93;1.05;;;;;;;10.86;38.65;101772.31;4938360;28;20102;-76
2022/05/28 08:23:38;;;;;;;10.10;1.17;;;;;;;9.32;46.60;101791.50;4972727;28;20070;-76
2022/05/28 08:26:05;;;;;;;6.85;0.55;;;;;;;9.01;47.80;101801.69;4975025;28;20100;-77
2022/05/28 08:28:30;;;;;;;5.18;0.20;;;;;;;8.85;47.53;101801.09;4946834;28;20053;-78
2022/05/28 08:30:56;;;;;;;8.93;0.40;;;;;;;9.57;46.61;101794.50;4941749;28;20674;-78
2022/05/28 08:33:22;;;;;;;10.32;0.85;;;;;;;9.32;47.14;101792.41;4967349;28;20083;-79
2022/05/28 08:35:50;;;;;;;5.10;1.10;;;;;;;10.15;44.71;101785.38;4942913;28;20050;-78
2022/05/28 08:38:21;;;;;;;4.88;0.50;;;;;;;10.05;44.03;101793.47;4950543;28;20050;-76
2022/05/28 08:40:57;;;;;;;8.63;0.45;;;;;;;12.11;39.85;101780.91;4954812;28;20031;-78
2022/05/28 08:43:30;;;;;;;9.55;1.27;;;;;;;13.52;36.84;101794.34;4955160;28;20498;-78
2022/05/28 08:45:55;;;;;;;10.38;0.90;;;;;;;12.28;38.61;101780.31;4970932;28;20577;-75
2022/05/28 08:48:31;;;;;;;9.80;1.10;;;;;;;11.22;40.80;101787.00;4956792;28;20038;-78
2022/05/28 08:51:08;;;;;;;5.50;0.55;;;;;;;12.33;39.60;101790.66;4969460;28;20038;-78
2022/05/28 08:53:42;;;;;;;12.45;1.05;;;;;;;12.44;38.82;101792.00;4967482;28;20526;-77
2022/05/28 08:56:13;;;;;;;12.02;2.75;;;;;;;12.25;39.22;101791.78;4969660;28;20478;-77
2022/05/28 08:58:40;;;;;;;9.73;1.20;;;;;;;14.08;34.28;101781.72;4970600;28;20051;-77
2022/05/28 09:01:14;;;;;;;17.27;2.28;;;;;;;13.58;36.63;101792.44;4937780;28;20638;-77
2022/05/28 09:03:54;;;;;;;6.28;1.35;;;;;;;11.94;39.12;101793.66;4969788;28;20161;-77
2022/05/28 09:06:38;;;;;;;17.58;1.13;;;;;;;11.64;39.40;101801.50;4949868;28;20061;-77
2022/05/28 09:09:08;;;;;;;8.15;0.80;;;;;;;11.18;38.43;101793.22;4953209;28;20070;-75
2022/05/28 09:11:50;;;;;;;10.32;1.10;;;;;;;11.64;37.78;101798.88;4954423;28;20081;-77
2022/05/28 09:14:28;;;;;;;12.27;1.08;;;;;;;13.38;34.65;101780.88;4951514;28;20051;-77
2022/05/28 09:16:57;;;;;;;11.52;1.90;;;;;;;13.93;34.70;101784.03;4956274;28;20129;-77
2022/05/28 09:19:28;;;;;;;8.73;0.65;;;;;;;14.57;31.52;101787.59;4967518;28;20058;-79
2022/05/28 09:21:54;;;;;;;5.50;0.95;;;;;;;15.25;30.66;101777.63;4954810;28;20035;-76
2022/05/28 09:24:23;;;;;;;9.93;1.08;;;;;;;14.04;33.63;101785.38;4965228;28;20081;-78
2022/05/28 09:27:26;;;;;;;6.20;1.00;;;;;;;13.66;34.21;101790.38;4952787;28;20035;-76
2022/05/28 09:30:10;;;;;;;8.60;1.20;;;;;;;13.98;32.93;101793.50;4955418;28;20043;-78
2022/05/28 09:32:54;;;;;;;15.95;1.42;;;;;;;13.81;35.05;101795.03;4967084;28;20050;-77
2022/05/28 09:35:25;;;;;;;10.50;1.25;;;;;;;14.00;33.38;101796.94;4961218;28;20041;-79
2022/05/28 09:38:01;;;;;;;5.15;0.60;;;;;;;12.72;34.43;101796.38;4949808;28;20059;-76
2022/05/28 09:40:52;;;;;;;10.38;1.50;;;;;;;13.58;34.92;101792.44;4955579;28;20049;-77
2022/05/28 09:43:36;;;;;;;12.50;1.05;;;;;;;13.62;33.68;101794.03;4952156;28;20050;-79
2022/05/28 09:46:12;;;;;;;8.30;1.20;;;;;;;12.44;35.67;101796.41;4959944;28;20039;-78
2022/05/28 09:48:38;;;;;;;9.98;1.15;;;;;;;12.28;35.92;101802.16;4969519;28;20058;-76
2022/05/28 09:51:03;;;;;;;11.70;1.33;;;;;;;13.00;34.13;101791.00;4939208;28;20655;-78
2022/05/28 09:56:29;;;;;;;2.80;0.65;;;;;;;12.33;35.32;101803.78;4965851;28;20039;-78
2022/05/28 09:58:55;;;;;;;3.65;0.80;;;;;;;12.56;34.63;101798.63;4953326;28;20046;-78
2022/05/28 10:01:23;;;;;;;2.22;0.47;;;;;;;12.63;33.90;101815.88;4955903;28;20799;-78
2022/05/28 10:06:53;;;;;;;4.30;0.45;;;;;;;12.99;32.96;101812.91;4969647;28;20842;-76
2022/05/28 10:09:25;;;;;;;5.15;0.68;;;;;;;13.66;32.99;101803.50;4953356;28;20505;-78
2022/05/28 10:12:00;;;;;;;10.43;0.80;;;;;;;12.32;35.93;101812.56;4926834;28;20050;-77
2022/05/28 10:14:29;;;;;;;6.55;0.63;;;;;;;11.72;35.36;101817.84;4951475;28;20053;-77
2022/05/28 10:17:01;;;;;;;8.80;0.50;;;;;;;13.07;34.25;101813.50;4955311;28;20568;-77
2022/05/28 10:19:38;;;;;;;4.00;0.55;;;;;;;13.43;33.49;101815.72;4957260;28;20254;-77
2022/05/28 10:22:10;;;;;;;6.55;0.85;;;;;;;13.97;32.72;101805.81;4955853;28;20043;-79
2022/05/28 10:24:44;;;;;;;6.55;0.65;;;;;;;13.31;33.68;101813.53;4957152;28;20035;-78
2022/05/28 10:27:31;;;;;;;9.90;1.35;;;;;;;12.75;34.53;101819.00;4938452;28;20051;-77
2022/05/28 10:30:02;;;;;;;6.25;1.50;;;;;;;12.35;35.59;101822.94;4969549;28;20056;-77
2022/05/28 10:32:38;;;;;;;10.90;0.80;;;;;;;13.82;32.81;101812.50;4969361;28;20071;-78
2022/05/28 10:35:13;;;;;;;5.80;0.55;;;;;;;12.94;32.13;101822.72;4967586;28;20031;-77
2022/05/28 10:37:39;;;;;;;5.10;0.55;;;;;;;12.88;32.91;101828.19;4950813;28;20634;-79
2022/05/28 10:40:18;;;;;;;5.18;0.30;;;;;;;12.95;31.70;101820.94;4955265;28;20035;-78
2022/05/28 10:42:45;;;;;;;3.15;0.40;;;;;;;13.04;32.73;101821.47;4943572;28;20127;-79
2022/05/28 10:45:15;;;;;;;7.25;0.40;;;;;;;12.20;32.53;101822.53;4939428;28;20035;-78
2022/05/28 10:48:01;;;;;;;11.02;0.50;;;;;;;11.89;33.57;101825.25;4965518;28;20524;-77
2022/05/28 10:50:43;;;;;;;5.20;0.50;;;;;;;11.96;34.25;101825.91;4950911;28;20570;-78
2022/05/28 10:53:13;;;;;;;12.95;0.30;;;;;;;12.44;34.25;101828.72;4953871;28;20049;-75
2022/05/28 10:55:57;;;;;;;11.15;0.68;;;;;;;12.58;35.21;101830.91;4968813;28;20035;-78
2022/05/28 10:58:37;;;;;;;8.57;1.13;;;;;;;12.61;35.23;101824.69;4964449;28;20047;-78
2022/05/28 11:01:06;;;;;;;6.28;0.82;;;;;;;12.35;34.67;101817.69;4938947;28;20651;-77
2022/05/28 11:03:52;;;;;;;3.85;0.57;;;;;;;11.60;35.81;101829.56;4966606;28;20270;-76
2022/05/28 11:06:24;;;;;;;6.05;0.35;;;;;;;12.33;34.82;101822.13;4966401;28;20058;-77
2022/05/28 11:09:08;;;;;;;9.13;0.57;;;;;;;13.16;32.93;101816.69;4946783;28;20528;-77
2022/05/28 11:11:52;;;;;;;4.00;0.30;;;;;;;13.34;33.03;101821.31;4953652;28;20038;-79
2022/05/28 11:14:32;;;;;;;8.63;1.15;;;;;;;13.71;33.04;101831.31;4955181;28;21022;-78
2022/05/28 11:17:30;;;;;;;3.90;0.38;;;;;;;13.24;32.75;101814.66;4951973;28;20038;-78
2022/05/28 11:20:19;;;;;;;4.78;0.20;;;;;;;13.74;33.01;101817.19;4950652;28;21091;-76
2022/05/28 11:23:13;;;;;;;3.33;0.30;;;;;;;13.44;33.53;101814.78;4946184;28;20050;-77
2022/05/28 11:25:47;;;;;;;6.93;1.27;;;;;;;14.59;32.53;101817.34;4938582;28;20101;-78
2022/05/28 11:28:26;;;;;;;6.40;1.45;;;;;;;14.80;30.98;101819.97;4967367;28;20039;-78
2022/05/28 11:30:57;;;;;;;5.07;0.77;;;;;;;13.91;32.54;101811.28;4964225;28;20532;-78
2022/05/28 11:33:36;;;;;;;8.30;0.60;;;;;;;13.01;33.53;101818.97;4934332;28;20135;-76
2022/05/28 11:36:11;;;;;;;12.88;1.02;;;;;;;13.59;33.61;101820.44;4963957;28;20709;-78
2022/05/28 11:38:41;;;;;;;4.53;0.82;;;;;;;12.98;35.00;101829.59;4946884;28;20066;-77
2022/05/28 11:41:36;;;;;;;11.43;0.40;;;;;;;12.58;36.14;101822.16;4933714;28;20127;-77
2022/05/28 11:44:23;;;;;;;10.70;0.88;;;;;;;12.63;36.28;101828.13;4948961;28;20085;-78
2022/05/28 11:47:01;;;;;;;9.75;0.57;;;;;;;12.73;35.29;101812.97;4967879;28;20035;-78
2022/05/28 11:52:40;;;;;;;4.68;0.70;;;;;;;13.50;34.41;101827.69;4956446;28;20069;-77